createdAt,value
2023-03-22T00:02:30.876Z,26.77
2023-03-22T00:05:01.684Z,26.05
2023-03-22T00:07:33.643Z,25.52
2023-03-22T00:10:04.645Z,25.80
2023-03-22T00:12:37.829Z,27.80
2023-03-22T00:15:11.554Z,28.73
2023-03-22T00:17:42.329Z,34.72
2023-03-22T00:20:14.298Z,29.77
2023-03-22T00:22:45.115Z,34.92
2023-03-22T00:25:15.914Z,31.33
2023-03-22T00:27:49.101Z,33.03
2023-03-22T00:30:20.038Z,32.88
2023-03-22T00:32:50.782Z,27.67
2023-03-22T00:35:21.736Z,28.30
2023-03-22T00:37:52.497Z,27.83
2023-03-22T00:40:23.458Z,27.45
2023-03-22T00:42:56.829Z,27.17
2023-03-22T00:45:27.602Z,26.73
2023-03-22T00:47:58.480Z,27.30
2023-03-22T00:50:29.253Z,28.10
2023-03-22T00:53:00.126Z,38.63
2023-03-22T00:55:30.786Z,37.10
2023-03-22T00:58:04.209Z,34.20
2023-03-22T01:00:34.967Z,32.60
2023-03-22T01:03:05.935Z,38.25
2023-03-22T01:05:37.535Z,31.13
2023-03-22T01:08:09.474Z,28.42
2023-03-22T01:10:41.971Z,28.63
2023-03-22T01:13:17.847Z,28.52
2023-03-22T01:15:49.858Z,29.17
2023-03-22T01:18:20.822Z,30.48
2023-03-22T01:20:51.566Z,30.98
2023-03-22T01:23:22.530Z,26.98
2023-03-22T01:25:53.726Z,27.40
2023-03-22T01:28:27.496Z,27.85
2023-03-22T01:30:58.855Z,26.30
2023-03-22T01:33:30.032Z,26.88
2023-03-22T01:36:01.508Z,28.48
2023-03-22T01:38:33.074Z,29.85
2023-03-22T01:41:05.150Z,27.38
2023-03-22T01:43:42.507Z,28.60
2023-03-22T01:46:13.736Z,27.67
2023-03-22T01:48:47.072Z,27.50
2023-03-22T01:51:21.837Z,23.92
2023-03-22T01:54:13.845Z,25.00
2023-03-22T01:56:45.544Z,28.60
2023-03-22T01:59:28.092Z,27.40
2023-03-22T02:02:19.164Z,27.30
2023-03-22T02:04:58.371Z,28.48
2023-03-22T02:07:33.358Z,28.67
2023-03-22T02:10:06.175Z,27.85
2023-03-22T02:13:02.305Z,26.42
2023-03-22T02:16:06.895Z,27.77
2023-03-22T02:19:17.197Z,30.10
2023-03-22T02:22:15.909Z,28.13
2023-03-22T02:25:26.756Z,27.80
2023-03-22T02:28:17.545Z,27.52
2023-03-22T02:31:18.007Z,28.10
2023-03-22T02:34:38.831Z,29.73
2023-03-22T02:37:42.820Z,27.92
2023-03-22T02:40:20.996Z,26.95
2023-03-22T02:43:03.272Z,28.73
2023-03-22T02:45:37.996Z,26.85
2023-03-22T02:48:14.411Z,24.40
2023-03-22T02:50:49.695Z,24.73
2023-03-22T02:53:24.532Z,24.05
2023-03-22T02:56:01.614Z,25.77
2023-03-22T02:58:38.537Z,24.88
2023-03-22T03:01:13.372Z,24.83
2023-03-22T03:03:48.377Z,23.52
2023-03-22T03:06:22.129Z,20.25
2023-03-22T03:08:54.212Z,21.88
2023-03-22T03:11:28.272Z,20.52
2023-03-22T03:13:59.375Z,21.17
2023-03-22T03:16:35.299Z,21.88
2023-03-22T03:19:13.313Z,23.17
2023-03-22T03:21:53.871Z,25.30
2023-03-22T03:24:32.992Z,25.13
2023-03-22T03:27:11.532Z,22.13
2023-03-22T03:29:45.623Z,16.33
2023-03-22T03:32:25.902Z,16.27
2023-03-22T03:35:01.844Z,15.43
2023-03-22T03:37:39.612Z,14.30
2023-03-22T03:40:15.144Z,15.05
2023-03-22T03:45:23.506Z,13.38
2023-03-22T03:47:57.337Z,8.15
2023-03-22T03:50:29.849Z,11.48
2023-03-22T03:53:01.968Z,9.38
2023-03-22T03:55:33.862Z,12.63
2023-03-22T03:58:09.326Z,12.32
2023-03-22T04:00:40.303Z,16.48
2023-03-22T04:03:34.610Z,14.15
2023-03-22T04:06:24.635Z,13.85
2023-03-22T04:08:59.743Z,10.82
2023-03-22T04:11:34.773Z,11.43
2023-03-22T04:14:09.591Z,10.40
2023-03-22T04:16:41.614Z,12.53
2023-03-22T04:19:15.645Z,10.68
2023-03-22T04:21:46.587Z,10.07
2023-03-22T04:24:18.039Z,9.27
2023-03-22T04:26:53.787Z,12.32
2023-03-22T04:29:56.756Z,10.65
2023-03-22T04:32:45.813Z,11.05
2023-03-22T04:35:17.736Z,10.80
2023-03-22T04:37:49.112Z,10.25
2023-03-22T04:40:23.464Z,9.95
2023-03-22T04:43:06.789Z,10.95
2023-03-22T04:45:58.520Z,9.32
2023-03-22T04:48:36.465Z,10.32
2023-03-22T04:51:08.205Z,9.35
2023-03-22T04:53:45.219Z,9.68
2023-03-22T04:56:17.981Z,11.27
2023-03-22T04:58:49.647Z,11.00
2023-03-22T05:01:23.324Z,8.00
2023-03-22T05:04:02.826Z,11.88
2023-03-22T05:06:33.790Z,8.20
2023-03-22T05:09:11.960Z,7.60
2023-03-22T05:11:43.611Z,8.77
2023-03-22T05:14:47.005Z,9.13
2023-03-22T05:17:24.143Z,9.13
2023-03-22T05:19:57.988Z,10.27
2023-03-22T05:22:29.739Z,12.20
2023-03-22T05:25:02.023Z,10.77
2023-03-22T05:27:35.195Z,10.85
2023-03-22T05:30:26.089Z,7.85
2023-03-22T05:33:07.831Z,7.82
2023-03-22T05:35:44.763Z,9.77
2023-03-22T05:38:15.845Z,7.97
2023-03-22T05:40:51.446Z,9.45
2023-03-22T05:43:23.018Z,10.65
2023-03-22T05:45:54.728Z,12.90
2023-03-22T05:48:53.838Z,12.57
2023-03-22T05:51:26.020Z,9.75
2023-03-22T05:53:57.970Z,18.52
2023-03-22T05:56:36.365Z,18.20
2023-03-22T05:59:10.224Z,17.17
2023-03-22T06:01:41.472Z,11.60
2023-03-22T06:04:28.640Z,12.90
2023-03-22T06:07:06.218Z,30.33
2023-03-22T06:09:50.513Z,9.23
2023-03-22T06:12:27.742Z,8.65
2023-03-22T06:15:06.020Z,11.63
2023-03-22T06:17:49.100Z,12.68
2023-03-22T06:20:27.474Z,12.38
2023-03-22T06:23:04.571Z,12.70
2023-03-22T06:25:35.802Z,13.23
2023-03-22T06:28:08.704Z,16.02
2023-03-22T06:30:41.927Z,17.92
2023-03-22T06:33:18.935Z,28.70
2023-03-22T06:35:59.214Z,35.22
2023-03-22T06:38:36.334Z,37.20
2023-03-22T06:41:07.326Z,37.97
2023-03-22T06:43:38.126Z,39.08
2023-03-22T06:46:26.652Z,38.88
2023-03-22T06:49:08.214Z,34.17
2023-03-22T06:51:41.761Z,36.22
2023-03-22T06:54:13.519Z,35.25
2023-03-22T06:56:44.497Z,30.88
2023-03-22T06:59:15.456Z,35.15
2023-03-22T07:01:46.139Z,32.38
2023-03-22T07:04:17.311Z,27.40
2023-03-22T07:06:53.248Z,28.10
2023-03-22T07:09:27.717Z,29.40
2023-03-22T07:12:01.895Z,31.90
2023-03-22T07:14:33.236Z,26.40
2023-03-22T07:17:19.551Z,28.90
2023-03-22T07:19:50.444Z,29.30
2023-03-22T07:22:25.144Z,27.88
2023-03-22T07:24:59.981Z,27.60
2023-03-22T07:27:34.234Z,30.20
2023-03-22T07:30:04.887Z,27.13
2023-03-22T07:32:39.225Z,26.15
2023-03-22T07:35:13.867Z,27.75
2023-03-22T07:37:48.654Z,23.38
2023-03-22T07:40:27.434Z,22.67
2023-03-22T07:42:59.378Z,21.27
2023-03-22T07:46:05.278Z,16.92
2023-03-22T07:49:02.479Z,14.02
2023-03-22T07:51:51.305Z,19.85
2023-03-22T07:54:33.572Z,13.68
2023-03-22T07:57:07.012Z,12.85
2023-03-22T07:59:42.188Z,15.30
2023-03-22T08:02:13.657Z,12.65
2023-03-22T08:04:53.170Z,11.70
2023-03-22T08:07:45.708Z,12.25
2023-03-22T08:10:20.501Z,17.58
2023-03-22T08:12:51.539Z,9.25
2023-03-22T08:17:59.205Z,15.93
2023-03-22T08:20:38.570Z,11.45
2023-03-22T08:23:17.094Z,11.20
2023-03-22T08:26:09.915Z,12.10
2023-03-22T08:28:41.241Z,10.90
2023-03-22T08:31:16.603Z,11.45
2023-03-22T08:33:49.647Z,12.95
2023-03-22T08:36:22.998Z,9.65
2023-03-22T08:39:01.970Z,13.27
2023-03-22T08:41:56.496Z,10.40
2023-03-22T08:44:30.006Z,11.45
2023-03-22T08:47:06.367Z,14.45
2023-03-22T08:49:38.024Z,11.82
2023-03-22T08:52:16.384Z,13.50
2023-03-22T08:55:00.106Z,10.57
2023-03-22T08:57:53.891Z,12.77
2023-03-22T09:00:49.720Z,10.90
2023-03-22T09:03:35.748Z,9.73
2023-03-22T09:06:07.215Z,11.95
2023-03-22T09:11:17.998Z,11.65
2023-03-22T09:13:54.277Z,9.40
2023-03-22T09:16:25.284Z,9.40
2023-03-22T09:18:56.255Z,8.75
2023-03-22T09:21:30.068Z,9.52
2023-03-22T09:24:19.411Z,9.98
2023-03-22T09:26:55.699Z,8.07
2023-03-22T09:29:29.461Z,8.73
2023-03-22T09:32:01.376Z,9.60
2023-03-22T09:34:35.900Z,7.20
2023-03-22T09:37:07.928Z,6.70
2023-03-22T09:39:47.189Z,8.43
2023-03-22T09:42:33.597Z,8.35
2023-03-22T09:45:15.585Z,7.43
2023-03-22T09:47:49.598Z,7.43
2023-03-22T09:50:24.279Z,7.35
2023-03-22T09:52:55.762Z,6.73
2023-03-22T09:55:42.987Z,7.10
2023-03-22T09:58:25.441Z,8.20
2023-03-22T10:01:01.830Z,6.07
2023-03-22T10:03:56.375Z,6.28
2023-03-22T10:06:29.433Z,5.80
2023-03-22T10:09:10.157Z,6.47
2023-03-22T10:11:48.633Z,6.18
2023-03-22T10:14:30.934Z,5.10
2023-03-22T10:17:08.536Z,7.10
2023-03-22T10:19:46.522Z,5.72
2023-03-22T10:22:20.562Z,6.10
2023-03-22T10:24:54.166Z,6.07
2023-03-22T10:27:27.080Z,4.82
2023-03-22T10:30:03.099Z,5.93
2023-03-22T10:32:57.170Z,3.92
2023-03-22T10:35:28.982Z,4.47
2023-03-22T10:38:01.936Z,4.60
2023-03-22T10:40:34.842Z,4.53
2023-03-22T10:43:09.655Z,6.47
2023-03-22T10:45:40.643Z,6.28
2023-03-22T10:48:20.433Z,11.45
2023-03-22T10:50:51.549Z,4.18
2023-03-22T10:53:37.766Z,6.55
2023-03-22T10:56:14.606Z,10.77
2023-03-22T10:58:45.452Z,8.30
2023-03-22T11:01:18.532Z,6.00
2023-03-22T11:03:56.063Z,10.07
2023-03-22T11:06:30.151Z,5.28
2023-03-22T11:09:02.841Z,6.65
2023-03-22T11:11:38.076Z,8.88
2023-03-22T11:16:47.650Z,10.32
2023-03-22T11:19:27.612Z,9.43
2023-03-22T11:21:59.379Z,8.27
2023-03-22T11:24:31.903Z,6.70
2023-03-22T11:27:08.338Z,4.68
2023-03-22T11:29:45.512Z,3.83
2023-03-22T11:32:29.724Z,5.32
2023-03-22T11:35:14.448Z,4.78
2023-03-22T11:37:46.220Z,11.18
2023-03-22T11:40:19.424Z,10.80
2023-03-22T11:42:52.588Z,3.63
2023-03-22T11:45:30.020Z,7.95
2023-03-22T11:48:06.229Z,12.93
2023-03-22T11:50:42.185Z,18.83
2023-03-22T11:53:18.211Z,4.32
2023-03-22T11:55:51.676Z,7.75
2023-03-22T11:58:30.647Z,14.27
2023-03-22T12:01:05.261Z,5.55
2023-03-22T12:03:39.830Z,10.48
2023-03-22T12:06:24.032Z,7.88
2023-03-22T12:08:59.798Z,13.85
2023-03-22T12:11:35.708Z,22.73
2023-03-22T12:14:10.171Z,10.98
2023-03-22T12:16:47.868Z,6.00
2023-03-22T12:19:30.917Z,4.07
2023-03-22T12:22:04.915Z,4.10
2023-03-22T12:24:36.099Z,7.55
2023-03-22T12:27:16.237Z,5.20
2023-03-22T12:29:50.861Z,7.22
2023-03-22T12:32:25.726Z,8.15
2023-03-22T12:35:09.204Z,4.07
2023-03-22T12:37:49.680Z,5.75
2023-03-22T12:40:25.901Z,5.95
2023-03-22T12:43:05.834Z,4.88
2023-03-22T12:45:42.877Z,4.57
2023-03-22T12:48:21.048Z,4.70
2023-03-22T12:50:56.364Z,4.93
2023-03-22T12:56:03.068Z,6.03
2023-03-22T12:58:33.746Z,4.57
2023-03-22T13:01:19.597Z,4.03
2023-03-22T13:03:53.943Z,4.32
2023-03-22T13:06:37.642Z,4.57
2023-03-22T13:09:18.676Z,7.78
2023-03-22T13:11:53.209Z,4.72
2023-03-22T13:14:56.329Z,5.20
2023-03-22T13:17:44.868Z,5.25
2023-03-22T13:20:31.961Z,3.50
2023-03-22T13:23:15.024Z,3.80
2023-03-22T13:26:18.355Z,8.23
2023-03-22T13:28:59.125Z,4.57
2023-03-22T13:31:42.793Z,4.65
2023-03-22T13:34:19.726Z,9.85
2023-03-22T13:36:58.486Z,4.10
2023-03-22T13:39:35.101Z,6.00
2023-03-22T13:42:12.701Z,6.60
2023-03-22T13:44:47.182Z,3.42
2023-03-22T13:47:37.394Z,5.20
2023-03-22T13:50:19.183Z,5.95
2023-03-22T13:53:00.716Z,4.70
2023-03-22T13:56:06.277Z,4.65
2023-03-22T13:58:53.818Z,7.03
2023-03-22T14:01:35.347Z,5.72
2023-03-22T14:04:11.032Z,5.75
2023-03-22T14:06:52.223Z,5.70
2023-03-22T14:09:29.167Z,5.50
2023-03-22T14:12:07.210Z,7.82
2023-03-22T14:14:47.270Z,3.60
2023-03-22T14:17:28.228Z,5.95
2023-03-22T14:20:00.096Z,4.45
2023-03-22T14:53:33.360Z,4.97
2023-03-22T14:56:08.515Z,8.38
2023-03-22T14:58:42.142Z,6.70
2023-03-22T15:01:19.510Z,5.13
2023-03-22T15:03:56.426Z,5.55
2023-03-22T15:06:28.640Z,6.47
2023-03-22T15:09:06.959Z,5.55
2023-03-22T15:11:40.254Z,5.70
2023-03-22T15:14:15.358Z,6.97
2023-03-22T15:16:52.573Z,8.57
2023-03-22T15:19:26.017Z,6.55
2023-03-22T15:22:07.061Z,10.18
2023-03-22T15:24:40.851Z,10.25
2023-03-22T15:27:15.694Z,6.03
2023-03-22T15:29:47.316Z,7.05
2023-03-22T15:32:23.293Z,5.20
2023-03-22T15:34:56.334Z,5.20
2023-03-22T15:37:32.058Z,6.93
2023-03-22T15:40:05.134Z,6.57
2023-03-22T15:42:40.177Z,8.18
2023-03-22T15:45:17.762Z,7.07
2023-03-22T15:47:54.921Z,7.45
2023-03-22T15:50:27.518Z,7.90
2023-03-22T15:53:00.688Z,7.55
2023-03-22T15:55:38.058Z,9.60
2023-03-22T15:58:22.317Z,11.20
2023-03-22T16:00:54.249Z,10.02
2023-03-22T16:03:44.531Z,10.10
2023-03-22T16:06:15.870Z,9.80
2023-03-22T16:08:46.893Z,12.45
2023-03-22T16:11:18.142Z,14.32
2023-03-22T16:13:48.894Z,10.10
2023-03-22T16:16:24.101Z,12.55
2023-03-22T16:21:34.356Z,10.45
2023-03-22T16:24:10.390Z,10.80
2023-03-22T16:26:41.913Z,11.70
2023-03-22T16:29:12.808Z,16.73
2023-03-22T16:31:47.897Z,12.38
2023-03-22T16:34:24.414Z,12.55
2023-03-22T16:36:55.981Z,8.88
2023-03-22T16:39:27.410Z,9.52
2023-03-22T16:41:58.136Z,10.80
2023-03-22T16:44:31.889Z,9.20
2023-03-22T16:47:03.662Z,10.57
2023-03-22T16:49:37.234Z,11.95
2023-03-22T16:52:09.465Z,10.77
2023-03-22T16:54:40.755Z,11.95
2023-03-22T16:57:16.526Z,13.13
2023-03-22T16:59:47.563Z,14.85
2023-03-22T17:02:21.609Z,11.10
2023-03-22T17:04:55.004Z,14.75
2023-03-22T17:07:28.294Z,15.43
2023-03-22T17:09:59.077Z,15.23
2023-03-22T17:12:32.362Z,12.85
2023-03-22T17:15:03.678Z,12.35
2023-03-22T17:17:35.294Z,14.13
2023-03-22T17:20:10.022Z,15.23
2023-03-22T17:22:41.106Z,17.55
2023-03-22T17:25:18.319Z,14.27
2023-03-22T17:27:49.955Z,14.55
2023-03-22T17:30:21.498Z,13.45
2023-03-22T17:35:34.389Z,15.00
2023-03-22T17:38:05.488Z,13.73
2023-03-22T17:40:45.796Z,12.35
2023-03-22T17:43:21.959Z,13.85
2023-03-22T17:46:27.040Z,14.23
2023-03-22T17:48:43.508Z,21.13
2023-03-22T17:51:17.653Z,25.90
2023-03-22T17:54:30.821Z,27.80
2023-03-22T17:57:08.814Z,32.95
2023-03-22T17:59:31.679Z,31.35
2023-03-22T18:02:02.425Z,27.70
2023-03-22T18:04:33.363Z,22.60
2023-03-22T18:07:07.035Z,22.65
2023-03-22T18:09:38.415Z,28.73
2023-03-22T18:12:09.889Z,29.88
2023-03-22T18:14:41.242Z,30.80
2023-03-22T18:17:13.599Z,32.08
2023-03-22T18:20:04.067Z,30.45
2023-03-22T18:22:38.533Z,29.15
2023-03-22T18:25:11.687Z,30.38
2023-03-22T18:27:47.683Z,26.80
2023-03-22T18:30:21.835Z,26.92
2023-03-22T18:33:05.696Z,27.67
2023-03-22T18:35:43.236Z,26.58
2023-03-22T18:38:34.017Z,28.02
2023-03-22T18:41:34.553Z,27.25
2023-03-22T18:44:02.583Z,30.13
2023-03-22T18:46:35.370Z,28.45
2023-03-22T18:49:06.567Z,26.30
2023-03-22T18:54:12.314Z,31.13
2023-03-22T18:56:43.085Z,29.10
2023-03-22T18:59:14.027Z,28.58
2023-03-22T19:01:48.665Z,29.42
2023-03-22T19:04:27.890Z,26.70
2023-03-22T19:07:01.155Z,34.72
2023-03-22T19:09:34.876Z,36.67
2023-03-22T19:12:06.912Z,40.33
2023-03-22T19:17:11.881Z,40.60
2023-03-22T19:19:43.042Z,33.83
2023-03-22T19:22:16.792Z,31.23
2023-03-22T19:24:53.208Z,22.02
2023-03-22T19:27:26.557Z,16.10
2023-03-22T19:30:02.143Z,19.38
2023-03-22T19:32:34.382Z,18.95
2023-03-22T19:35:05.483Z,21.50
2023-03-22T19:37:36.890Z,20.67
2023-03-22T19:41:06.124Z,19.08
2023-03-22T19:43:03.143Z,18.48
2023-03-22T19:45:33.991Z,16.83
2023-03-22T19:48:04.837Z,18.02
2023-03-22T19:50:36.264Z,16.27
2023-03-22T19:53:40.259Z,17.52
2023-03-22T19:56:01.505Z,17.95
2023-03-22T19:58:32.447Z,15.35
2023-03-22T20:01:10.451Z,16.60
2023-03-22T20:03:42.190Z,16.67
2023-03-22T20:06:14.515Z,16.13
2023-03-22T20:08:45.187Z,15.98
2023-03-22T20:11:27.619Z,16.77
2023-03-22T20:14:03.752Z,16.88
2023-03-22T20:16:34.711Z,18.83
2023-03-22T20:19:06.669Z,15.20
2023-03-22T20:21:39.004Z,13.77
2023-03-22T20:24:10.077Z,16.55
2023-03-22T20:26:43.624Z,14.93
2023-03-22T20:29:14.492Z,14.85
2023-03-22T20:31:45.445Z,15.80
2023-03-22T20:34:16.523Z,30.38
2023-03-22T20:36:49.071Z,16.65
2023-03-22T20:39:20.840Z,14.60
2023-03-22T20:41:54.814Z,16.25
2023-03-22T20:44:26.215Z,17.10
2023-03-22T20:46:58.138Z,15.52
2023-03-22T20:49:29.614Z,15.75
2023-03-22T20:52:01.159Z,16.65
2023-03-22T20:54:31.912Z,19.20
2023-03-22T20:57:05.400Z,17.30
2023-03-22T20:59:37.399Z,19.00
2023-03-22T21:02:08.804Z,17.83
2023-03-22T21:04:40.198Z,17.10
2023-03-22T21:07:11.414Z,18.13
2023-03-22T21:09:44.093Z,21.40
2023-03-22T21:12:18.955Z,19.73
2023-03-22T21:14:49.848Z,19.30
2023-03-22T21:17:21.635Z,19.48
2023-03-22T21:19:52.407Z,19.15
2023-03-22T21:22:24.479Z,18.23
2023-03-22T21:24:55.788Z,19.40
2023-03-22T21:27:31.167Z,18.85
2023-03-22T21:30:03.080Z,18.90
2023-03-22T21:32:37.371Z,18.40
2023-03-22T21:35:08.707Z,18.17
2023-03-22T21:37:39.850Z,19.23
2023-03-22T21:40:12.685Z,21.92
2023-03-22T21:42:58.348Z,21.90
2023-03-22T21:45:34.480Z,23.35
2023-03-22T21:48:07.378Z,21.10
2023-03-22T21:50:38.231Z,21.15
2023-03-22T21:53:08.981Z,21.45
2023-03-22T21:55:39.883Z,21.05
2023-03-22T21:58:13.672Z,20.88
2023-03-22T22:00:45.049Z,21.17
2023-03-22T22:03:15.895Z,19.70
2023-03-22T22:05:52.149Z,19.23
2023-03-22T22:08:24.144Z,19.40
2023-03-22T22:10:58.154Z,19.95
2023-03-22T22:13:32.335Z,20.77
2023-03-22T22:16:05.319Z,20.33
2023-03-22T22:18:38.599Z,18.75
2023-03-22T22:21:12.014Z,18.60
2023-03-22T22:23:45.951Z,17.48
2023-03-22T22:26:19.477Z,18.95
2023-03-22T22:28:56.345Z,17.50
2023-03-22T22:31:31.589Z,19.05
2023-03-22T22:34:03.238Z,18.40
2023-03-22T22:36:34.078Z,17.05
2023-03-22T22:39:06.622Z,21.25
2023-03-22T22:41:37.647Z,16.90
2023-03-22T22:44:11.419Z,19.63
2023-03-22T22:46:42.453Z,20.35
2023-03-22T22:49:13.390Z,18.55
2023-03-22T22:51:44.350Z,20.50
2023-03-22T22:54:15.870Z,17.25
2023-03-22T22:56:47.073Z,19.08
2023-03-22T22:59:20.567Z,20.13
2023-03-22T23:01:51.238Z,20.48
2023-03-22T23:04:22.140Z,18.63
2023-03-22T23:06:53.083Z,18.33
2023-03-22T23:09:25.429Z,16.23
2023-03-22T23:11:57.955Z,20.70
2023-03-22T23:14:33.323Z,20.25
2023-03-22T23:19:38.529Z,27.83
2023-03-22T23:22:14.543Z,28.75
2023-03-22T23:24:45.864Z,29.02
2023-03-22T23:27:16.906Z,28.58
2023-03-22T23:29:50.540Z,29.77
2023-03-22T23:32:22.321Z,32.95
2023-03-22T23:34:58.139Z,32.38
2023-03-22T23:40:08.720Z,26.65
2023-03-22T23:42:42.073Z,23.20
2023-03-22T23:45:18.226Z,22.85
2023-03-22T23:47:49.219Z,26.25
2023-03-22T23:50:20.103Z,26.83
2023-03-22T23:52:51.679Z,28.30
2023-03-22T23:55:26.615Z,26.17
2023-03-22T23:57:58.354Z,26.75
